sensor_id;sensor_type;location;lat;lon;timestamp;P1;durP1;ratioP1;P2;durP2;ratioP2
37855;SDS011;23694;43.274;26.924;2023-05-16T00:00:31;10.77;;;6.20;;
37855;SDS011;23694;43.274;26.924;2023-05-16T00:03:00;8.80;;;5.93;;
37855;SDS011;23694;43.274;26.924;2023-05-16T00:05:27;11.27;;;6.30;;
37855;SDS011;23694;43.274;26.924;2023-05-16T00:07:54;12.37;;;8.80;;
37855;SDS011;23694;43.274;26.924;2023-05-16T00:10:20;14.67;;;8.27;;
37855;SDS011;23694;43.274;26.924;2023-05-16T00:12:46;9.93;;;6.77;;
37855;SDS011;23694;43.274;26.924;2023-05-16T00:15:16;12.20;;;6.93;;
37855;SDS011;23694;43.274;26.924;2023-05-16T00:17:45;10.60;;;7.30;;
37855;SDS011;23694;43.274;26.924;2023-05-16T00:20:12;10.83;;;7.10;;
37855;SDS011;23694;43.274;26.924;2023-05-16T00:22:39;11.57;;;7.57;;
37855;SDS011;23694;43.274;26.924;2023-05-16T00:25:05;10.27;;;8.17;;
37855;SDS011;23694;43.274;26.924;2023-05-16T00:27:34;9.40;;;7.33;;
37855;SDS011;23694;43.274;26.924;2023-05-16T00:30:01;10.83;;;7.87;;
37855;SDS011;23694;43.274;26.924;2023-05-16T00:32:28;12.07;;;7.90;;
37855;SDS011;23694;43.274;26.924;2023-05-16T00:34:54;10.07;;;8.03;;
37855;SDS011;23694;43.274;26.924;2023-05-16T00:37:20;10.27;;;7.50;;
37855;SDS011;23694;43.274;26.924;2023-05-16T00:39:46;8.87;;;7.97;;
37855;SDS011;23694;43.274;26.924;2023-05-16T00:42:12;11.67;;;8.80;;
37855;SDS011;23694;43.274;26.924;2023-05-16T00:44:38;10.20;;;8.43;;
37855;SDS011;23694;43.274;26.924;2023-05-16T00:47:04;11.53;;;8.47;;
37855;SDS011;23694;43.274;26.924;2023-05-16T00:49:30;9.10;;;8.10;;
37855;SDS011;23694;43.274;26.924;2023-05-16T00:51:56;10.73;;;8.70;;
37855;SDS011;23694;43.274;26.924;2023-05-16T00:54:23;11.60;;;8.43;;
37855;SDS011;23694;43.274;26.924;2023-05-16T00:56:51;12.03;;;8.23;;
37855;SDS011;23694;43.274;26.924;2023-05-16T00:59:18;14.43;;;8.63;;
37855;SDS011;23694;43.274;26.924;2023-05-16T01:01:45;10.70;;;9.10;;
37855;SDS011;23694;43.274;26.924;2023-05-16T01:04:14;12.40;;;8.40;;
37855;SDS011;23694;43.274;26.924;2023-05-16T01:06:42;13.13;;;8.83;;
37855;SDS011;23694;43.274;26.924;2023-05-16T01:09:09;11.53;;;8.13;;
37855;SDS011;23694;43.274;26.924;2023-05-16T01:16:36;9.67;;;7.77;;
37855;SDS011;23694;43.274;26.924;2023-05-16T01:19:12;11.10;;;8.40;;
37855;SDS011;23694;43.274;26.924;2023-05-16T01:22:40;9.70;;;8.20;;
37855;SDS011;23694;43.274;26.924;2023-05-16T01:24:52;14.00;;;7.77;;
37855;SDS011;23694;43.274;26.924;2023-05-16T01:27:36;10.30;;;7.83;;
37855;SDS011;23694;43.274;26.924;2023-05-16T01:30:16;10.37;;;8.00;;
37855;SDS011;23694;43.274;26.924;2023-05-16T01:32:44;9.17;;;7.00;;
37855;SDS011;23694;43.274;26.924;2023-05-16T01:35:14;9.47;;;7.73;;
37855;SDS011;23694;43.274;26.924;2023-05-16T01:37:53;13.32;;;7.22;;
37855;SDS011;23694;43.274;26.924;2023-05-16T01:40:52;9.83;;;7.40;;
37855;SDS011;23694;43.274;26.924;2023-05-16T01:43:32;14.13;;;7.77;;
37855;SDS011;23694;43.274;26.924;2023-05-16T01:46:03;10.80;;;7.43;;
37855;SDS011;23694;43.274;26.924;2023-05-16T01:48:52;9.48;;;7.90;;
37855;SDS011;23694;43.274;26.924;2023-05-16T01:51:22;9.30;;;7.03;;
37855;SDS011;23694;43.274;26.924;2023-05-16T01:53:52;7.73;;;7.03;;
37855;SDS011;23694;43.274;26.924;2023-05-16T01:56:26;9.50;;;7.40;;
37855;SDS011;23694;43.274;26.924;2023-05-16T01:58:54;9.37;;;7.73;;
37855;SDS011;23694;43.274;26.924;2023-05-16T02:01:22;9.43;;;7.60;;
37855;SDS011;23694;43.274;26.924;2023-05-16T02:03:48;10.27;;;8.43;;
37855;SDS011;23694;43.274;26.924;2023-05-16T02:06:15;10.30;;;7.80;;
37855;SDS011;23694;43.274;26.924;2023-05-16T02:08:41;9.10;;;7.63;;
37855;SDS011;23694;43.274;26.924;2023-05-16T02:11:07;10.87;;;7.37;;
37855;SDS011;23694;43.274;26.924;2023-05-16T02:13:33;12.07;;;8.23;;
37855;SDS011;23694;43.274;26.924;2023-05-16T02:15:59;9.20;;;7.47;;
37855;SDS011;23694;43.274;26.924;2023-05-16T02:18:26;12.50;;;8.13;;
37855;SDS011;23694;43.274;26.924;2023-05-16T02:20:52;10.40;;;8.50;;
37855;SDS011;23694;43.274;26.924;2023-05-16T02:23:19;13.17;;;9.60;;
37855;SDS011;23694;43.274;26.924;2023-05-16T02:25:45;17.13;;;10.20;;
37855;SDS011;23694;43.274;26.924;2023-05-16T02:28:11;15.13;;;10.40;;
37855;SDS011;23694;43.274;26.924;2023-05-16T02:30:37;14.60;;;9.57;;
37855;SDS011;23694;43.274;26.924;2023-05-16T02:33:03;11.30;;;9.90;;
37855;SDS011;23694;43.274;26.924;2023-05-16T02:35:29;15.67;;;10.17;;
37855;SDS011;23694;43.274;26.924;2023-05-16T02:37:55;12.40;;;9.10;;
37855;SDS011;23694;43.274;26.924;2023-05-16T02:40:21;11.17;;;8.00;;
37855;SDS011;23694;43.274;26.924;2023-05-16T02:42:47;10.00;;;7.57;;
37855;SDS011;23694;43.274;26.924;2023-05-16T02:45:13;17.47;;;8.27;;
37855;SDS011;23694;43.274;26.924;2023-05-16T02:47:39;11.47;;;7.57;;
37855;SDS011;23694;43.274;26.924;2023-05-16T02:50:06;13.07;;;8.63;;
37855;SDS011;23694;43.274;26.924;2023-05-16T02:52:32;12.67;;;7.77;;
37855;SDS011;23694;43.274;26.924;2023-05-16T02:54:58;10.70;;;8.33;;
37855;SDS011;23694;43.274;26.924;2023-05-16T02:57:24;12.63;;;8.20;;
37855;SDS011;23694;43.274;26.924;2023-05-16T02:59:50;14.83;;;12.00;;
37855;SDS011;23694;43.274;26.924;2023-05-16T03:02:16;36.03;;;27.10;;
37855;SDS011;23694;43.274;26.924;2023-05-16T03:04:42;16.03;;;11.70;;
37855;SDS011;23694;43.274;26.924;2023-05-16T03:07:08;22.20;;;14.90;;
37855;SDS011;23694;43.274;26.924;2023-05-16T03:09:34;11.07;;;9.03;;
37855;SDS011;23694;43.274;26.924;2023-05-16T03:12:00;29.40;;;22.47;;
37855;SDS011;23694;43.274;26.924;2023-05-16T03:14:26;18.40;;;13.40;;
37855;SDS011;23694;43.274;26.924;2023-05-16T03:16:52;12.00;;;9.00;;
37855;SDS011;23694;43.274;26.924;2023-05-16T03:19:18;14.37;;;9.90;;
37855;SDS011;23694;43.274;26.924;2023-05-16T03:21:44;18.57;;;11.97;;
37855;SDS011;23694;43.274;26.924;2023-05-16T03:24:10;17.23;;;13.73;;
37855;SDS011;23694;43.274;26.924;2023-05-16T03:26:37;19.17;;;13.00;;
37855;SDS011;23694;43.274;26.924;2023-05-16T03:29:03;14.90;;;11.40;;
37855;SDS011;23694;43.274;26.924;2023-05-16T03:31:29;16.47;;;9.57;;
37855;SDS011;23694;43.274;26.924;2023-05-16T03:33:56;11.73;;;8.30;;
37855;SDS011;23694;43.274;26.924;2023-05-16T03:36:22;14.00;;;8.90;;
37855;SDS011;23694;43.274;26.924;2023-05-16T03:38:49;10.53;;;8.63;;
37855;SDS011;23694;43.274;26.924;2023-05-16T03:41:15;15.80;;;9.50;;
37855;SDS011;23694;43.274;26.924;2023-05-16T03:43:41;14.80;;;10.17;;
37855;SDS011;23694;43.274;26.924;2023-05-16T03:46:07;11.70;;;8.80;;
37855;SDS011;23694;43.274;26.924;2023-05-16T03:48:33;11.83;;;9.20;;
37855;SDS011;23694;43.274;26.924;2023-05-16T03:50:59;16.10;;;8.77;;
37855;SDS011;23694;43.274;26.924;2023-05-16T03:53:25;15.50;;;9.93;;
37855;SDS011;23694;43.274;26.924;2023-05-16T03:55:52;12.17;;;10.07;;
37855;SDS011;23694;43.274;26.924;2023-05-16T03:58:18;16.83;;;10.17;;
37855;SDS011;23694;43.274;26.924;2023-05-16T04:00:44;21.10;;;10.67;;
37855;SDS011;23694;43.274;26.924;2023-05-16T04:03:11;16.27;;;10.63;;
37855;SDS011;23694;43.274;26.924;2023-05-16T04:05:37;13.13;;;9.40;;
37855;SDS011;23694;43.274;26.924;2023-05-16T04:08:03;17.30;;;10.00;;
37855;SDS011;23694;43.274;26.924;2023-05-16T04:10:29;15.07;;;9.90;;
37855;SDS011;23694;43.274;26.924;2023-05-16T04:12:55;17.20;;;10.27;;
37855;SDS011;23694;43.274;26.924;2023-05-16T04:15:21;17.03;;;10.17;;
37855;SDS011;23694;43.274;26.924;2023-05-16T04:17:48;19.13;;;11.17;;
37855;SDS011;23694;43.274;26.924;2023-05-16T04:20:14;18.23;;;11.53;;
37855;SDS011;23694;43.274;26.924;2023-05-16T04:22:41;16.63;;;10.80;;
37855;SDS011;23694;43.274;26.924;2023-05-16T04:25:07;18.33;;;9.43;;
37855;SDS011;23694;43.274;26.924;2023-05-16T04:27:34;18.67;;;9.13;;
37855;SDS011;23694;43.274;26.924;2023-05-16T04:30:00;17.10;;;8.97;;
37855;SDS011;23694;43.274;26.924;2023-05-16T04:32:26;11.50;;;8.30;;
37855;SDS011;23694;43.274;26.924;2023-05-16T04:34:53;21.50;;;9.17;;
37855;SDS011;23694;43.274;26.924;2023-05-16T04:37:19;12.00;;;8.67;;
37855;SDS011;23694;43.274;26.924;2023-05-16T04:39:45;14.57;;;9.73;;
37855;SDS011;23694;43.274;26.924;2023-05-16T04:42:12;23.77;;;16.13;;
37855;SDS011;23694;43.274;26.924;2023-05-16T04:44:38;17.80;;;10.83;;
37855;SDS011;23694;43.274;26.924;2023-05-16T04:47:04;12.50;;;7.10;;
37855;SDS011;23694;43.274;26.924;2023-05-16T04:49:30;16.67;;;9.73;;
37855;SDS011;23694;43.274;26.924;2023-05-16T04:51:56;15.83;;;10.37;;
37855;SDS011;23694;43.274;26.924;2023-05-16T04:54:22;12.33;;;7.73;;
37855;SDS011;23694;43.274;26.924;2023-05-16T04:56:48;10.90;;;7.23;;
37855;SDS011;23694;43.274;26.924;2023-05-16T04:59:14;14.20;;;7.57;;
37855;SDS011;23694;43.274;26.924;2023-05-16T05:01:41;9.97;;;7.00;;
37855;SDS011;23694;43.274;26.924;2023-05-16T05:04:07;11.23;;;7.37;;
37855;SDS011;23694;43.274;26.924;2023-05-16T05:06:33;11.30;;;7.53;;
37855;SDS011;23694;43.274;26.924;2023-05-16T05:08:59;12.57;;;7.50;;
37855;SDS011;23694;43.274;26.924;2023-05-16T05:11:25;14.70;;;7.10;;
37855;SDS011;23694;43.274;26.924;2023-05-16T05:13:51;12.23;;;6.87;;
37855;SDS011;23694;43.274;26.924;2023-05-16T05:16:17;13.20;;;6.43;;
37855;SDS011;23694;43.274;26.924;2023-05-16T05:18:43;12.10;;;6.30;;
37855;SDS011;23694;43.274;26.924;2023-05-16T05:21:10;11.03;;;5.97;;
37855;SDS011;23694;43.274;26.924;2023-05-16T05:23:36;12.03;;;6.70;;
37855;SDS011;23694;43.274;26.924;2023-05-16T05:26:02;14.67;;;6.87;;
37855;SDS011;23694;43.274;26.924;2023-05-16T05:28:28;13.23;;;7.30;;
37855;SDS011;23694;43.274;26.924;2023-05-16T05:30:54;13.93;;;7.20;;
37855;SDS011;23694;43.274;26.924;2023-05-16T05:33:22;9.17;;;5.63;;
37855;SDS011;23694;43.274;26.924;2023-05-16T05:35:53;8.77;;;6.03;;
37855;SDS011;23694;43.274;26.924;2023-05-16T05:38:20;11.37;;;6.40;;
37855;SDS011;23694;43.274;26.924;2023-05-16T05:40:46;13.77;;;6.80;;
37855;SDS011;23694;43.274;26.924;2023-05-16T05:43:12;12.17;;;6.53;;
37855;SDS011;23694;43.274;26.924;2023-05-16T05:45:38;9.67;;;5.87;;
37855;SDS011;23694;43.274;26.924;2023-05-16T05:48:04;10.93;;;6.70;;
37855;SDS011;23694;43.274;26.924;2023-05-16T05:50:31;13.33;;;6.90;;
37855;SDS011;23694;43.274;26.924;2023-05-16T05:52:57;9.00;;;6.70;;
37855;SDS011;23694;43.274;26.924;2023-05-16T05:55:23;9.53;;;5.70;;
37855;SDS011;23694;43.274;26.924;2023-05-16T05:57:49;7.57;;;5.60;;
37855;SDS011;23694;43.274;26.924;2023-05-16T06:00:15;7.83;;;5.40;;
37855;SDS011;23694;43.274;26.924;2023-05-16T06:02:41;6.97;;;4.90;;
37855;SDS011;23694;43.274;26.924;2023-05-16T06:05:08;10.13;;;6.00;;
37855;SDS011;23694;43.274;26.924;2023-05-16T06:07:34;11.57;;;4.90;;
37855;SDS011;23694;43.274;26.924;2023-05-16T06:10:00;8.87;;;4.33;;
37855;SDS011;23694;43.274;26.924;2023-05-16T06:12:29;7.80;;;4.33;;
37855;SDS011;23694;43.274;26.924;2023-05-16T06:14:55;10.17;;;5.03;;
37855;SDS011;23694;43.274;26.924;2023-05-16T06:17:21;13.30;;;5.23;;
37855;SDS011;23694;43.274;26.924;2023-05-16T06:19:47;7.90;;;4.40;;
37855;SDS011;23694;43.274;26.924;2023-05-16T06:22:13;6.27;;;4.20;;
37855;SDS011;23694;43.274;26.924;2023-05-16T06:24:39;4.90;;;3.97;;
37855;SDS011;23694;43.274;26.924;2023-05-16T06:27:05;6.30;;;4.47;;
37855;SDS011;23694;43.274;26.924;2023-05-16T06:29:31;9.47;;;5.20;;
37855;SDS011;23694;43.274;26.924;2023-05-16T06:31:57;7.73;;;4.83;;
37855;SDS011;23694;43.274;26.924;2023-05-16T06:34:23;10.03;;;5.00;;
37855;SDS011;23694;43.274;26.924;2023-05-16T06:36:53;7.97;;;4.40;;
37855;SDS011;23694;43.274;26.924;2023-05-16T06:39:19;8.63;;;4.57;;
37855;SDS011;23694;43.274;26.924;2023-05-16T06:41:46;7.20;;;4.83;;
37855;SDS011;23694;43.274;26.924;2023-05-16T06:44:12;7.03;;;4.90;;
37855;SDS011;23694;43.274;26.924;2023-05-16T06:46:38;9.20;;;5.00;;
37855;SDS011;23694;43.274;26.924;2023-05-16T06:49:04;12.30;;;5.00;;
37855;SDS011;23694;43.274;26.924;2023-05-16T06:51:31;7.40;;;4.10;;
37855;SDS011;23694;43.274;26.924;2023-05-16T06:53:57;9.97;;;4.43;;
37855;SDS011;23694;43.274;26.924;2023-05-16T06:56:23;6.07;;;4.07;;
37855;SDS011;23694;43.274;26.924;2023-05-16T06:58:49;8.07;;;4.87;;
37855;SDS011;23694;43.274;26.924;2023-05-16T07:01:15;8.60;;;4.80;;
37855;SDS011;23694;43.274;26.924;2023-05-16T07:03:41;7.67;;;4.73;;
37855;SDS011;23694;43.274;26.924;2023-05-16T07:06:07;10.27;;;5.00;;
37855;SDS011;23694;43.274;26.924;2023-05-16T07:08:33;8.07;;;5.00;;
37855;SDS011;23694;43.274;26.924;2023-05-16T07:11:01;7.57;;;5.03;;
37855;SDS011;23694;43.274;26.924;2023-05-16T07:13:27;11.10;;;5.23;;
37855;SDS011;23694;43.274;26.924;2023-05-16T07:15:53;8.10;;;5.10;;
37855;SDS011;23694;43.274;26.924;2023-05-16T07:18:19;10.43;;;4.50;;
37855;SDS011;23694;43.274;26.924;2023-05-16T07:20:45;11.93;;;5.00;;
37855;SDS011;23694;43.274;26.924;2023-05-16T07:23:11;4.90;;;3.30;;
37855;SDS011;23694;43.274;26.924;2023-05-16T07:25:37;5.63;;;4.10;;
37855;SDS011;23694;43.274;26.924;2023-05-16T07:28:04;9.60;;;3.83;;
37855;SDS011;23694;43.274;26.924;2023-05-16T07:30:30;8.10;;;3.80;;
37855;SDS011;23694;43.274;26.924;2023-05-16T07:32:56;7.87;;;3.47;;
37855;SDS011;23694;43.274;26.924;2023-05-16T07:35:22;6.77;;;3.70;;
37855;SDS011;23694;43.274;26.924;2023-05-16T07:37:48;5.77;;;3.37;;
37855;SDS011;23694;43.274;26.924;2023-05-16T07:40:14;9.17;;;3.90;;
37855;SDS011;23694;43.274;26.924;2023-05-16T07:42:42;5.23;;;3.40;;
37855;SDS011;23694;43.274;26.924;2023-05-16T07:45:09;6.97;;;3.73;;
37855;SDS011;23694;43.274;26.924;2023-05-16T07:47:35;8.33;;;3.43;;
37855;SDS011;23694;43.274;26.924;2023-05-16T07:50:01;7.97;;;4.17;;
37855;SDS011;23694;43.274;26.924;2023-05-16T07:52:27;6.53;;;3.17;;
37855;SDS011;23694;43.274;26.924;2023-05-16T07:54:53;7.67;;;3.30;;
37855;SDS011;23694;43.274;26.924;2023-05-16T07:57:19;6.77;;;3.07;;
37855;SDS011;23694;43.274;26.924;2023-05-16T07:59:45;7.40;;;3.33;;
37855;SDS011;23694;43.274;26.924;2023-05-16T08:02:11;4.33;;;2.90;;
37855;SDS011;23694;43.274;26.924;2023-05-16T08:04:37;5.87;;;3.57;;
37855;SDS011;23694;43.274;26.924;2023-05-16T08:07:04;6.13;;;3.83;;
37855;SDS011;23694;43.274;26.924;2023-05-16T08:09:30;3.93;;;2.80;;
37855;SDS011;23694;43.274;26.924;2023-05-16T08:11:56;6.13;;;3.37;;
37855;SDS011;23694;43.274;26.924;2023-05-16T08:14:22;4.60;;;3.03;;
37855;SDS011;23694;43.274;26.924;2023-05-16T08:16:48;7.97;;;3.23;;
37855;SDS011;23694;43.274;26.924;2023-05-16T08:19:14;8.57;;;4.07;;
37855;SDS011;23694;43.274;26.924;2023-05-16T08:21:40;4.47;;;3.00;;
37855;SDS011;23694;43.274;26.924;2023-05-16T08:24:06;9.27;;;3.63;;
37855;SDS011;23694;43.274;26.924;2023-05-16T08:26:33;7.60;;;3.97;;
37855;SDS011;23694;43.274;26.924;2023-05-16T08:29:00;8.43;;;4.57;;
37855;SDS011;23694;43.274;26.924;2023-05-16T08:31:26;8.43;;;4.27;;
37855;SDS011;23694;43.274;26.924;2023-05-16T08:33:52;5.80;;;3.40;;
37855;SDS011;23694;43.274;26.924;2023-05-16T08:36:18;7.73;;;4.50;;
37855;SDS011;23694;43.274;26.924;2023-05-16T08:38:44;9.43;;;4.00;;
37855;SDS011;23694;43.274;26.924;2023-05-16T08:41:10;6.33;;;3.77;;
37855;SDS011;23694;43.274;26.924;2023-05-16T08:43:36;6.47;;;3.40;;
37855;SDS011;23694;43.274;26.924;2023-05-16T08:46:02;7.57;;;3.60;;
37855;SDS011;23694;43.274;26.924;2023-05-16T08:48:28;5.77;;;3.10;;
37855;SDS011;23694;43.274;26.924;2023-05-16T08:50:57;6.77;;;3.63;;
37855;SDS011;23694;43.274;26.924;2023-05-16T08:53:26;8.17;;;3.53;;
37855;SDS011;23694;43.274;26.924;2023-05-16T08:56:00;5.77;;;3.43;;
37855;SDS011;23694;43.274;26.924;2023-05-16T08:58:28;6.80;;;3.77;;
37855;SDS011;23694;43.274;26.924;2023-05-16T09:00:55;6.40;;;3.27;;
37855;SDS011;23694;43.274;26.924;2023-05-16T09:03:21;7.30;;;3.33;;
37855;SDS011;23694;43.274;26.924;2023-05-16T09:05:49;5.87;;;3.00;;
37855;SDS011;23694;43.274;26.924;2023-05-16T09:08:15;5.43;;;3.43;;
37855;SDS011;23694;43.274;26.924;2023-05-16T09:10:41;7.40;;;2.47;;
37855;SDS011;23694;43.274;26.924;2023-05-16T09:13:07;6.27;;;3.33;;
37855;SDS011;23694;43.274;26.924;2023-05-16T09:15:33;6.50;;;2.90;;
37855;SDS011;23694;43.274;26.924;2023-05-16T09:18:00;6.00;;;2.57;;
37855;SDS011;23694;43.274;26.924;2023-05-16T09:20:27;6.73;;;2.80;;
37855;SDS011;23694;43.274;26.924;2023-05-16T09:22:54;6.27;;;2.70;;
37855;SDS011;23694;43.274;26.924;2023-05-16T09:25:21;5.57;;;3.47;;
37855;SDS011;23694;43.274;26.924;2023-05-16T09:27:52;4.07;;;2.70;;
37855;SDS011;23694;43.274;26.924;2023-05-16T09:30:22;4.10;;;2.87;;
37855;SDS011;23694;43.274;26.924;2023-05-16T09:32:52;5.73;;;2.90;;
37855;SDS011;23694;43.274;26.924;2023-05-16T09:35:19;5.47;;;2.80;;
37855;SDS011;23694;43.274;26.924;2023-05-16T09:37:46;6.47;;;3.33;;
37855;SDS011;23694;43.274;26.924;2023-05-16T09:40:14;5.33;;;3.03;;
37855;SDS011;23694;43.274;26.924;2023-05-16T09:42:41;4.23;;;2.67;;
37855;SDS011;23694;43.274;26.924;2023-05-16T09:45:14;5.83;;;2.87;;
37855;SDS011;23694;43.274;26.924;2023-05-16T09:47:42;6.73;;;3.10;;
37855;SDS011;23694;43.274;26.924;2023-05-16T09:50:15;8.03;;;2.80;;
37855;SDS011;23694;43.274;26.924;2023-05-16T09:52:41;8.73;;;3.23;;
37855;SDS011;23694;43.274;26.924;2023-05-16T09:55:08;7.67;;;3.00;;
37855;SDS011;23694;43.274;26.924;2023-05-16T09:57:38;4.03;;;2.43;;
37855;SDS011;23694;43.274;26.924;2023-05-16T10:00:05;3.90;;;2.80;;
37855;SDS011;23694;43.274;26.924;2023-05-16T10:02:35;5.07;;;2.93;;
37855;SDS011;23694;43.274;26.924;2023-05-16T10:05:02;5.00;;;2.33;;
37855;SDS011;23694;43.274;26.924;2023-05-16T10:07:29;6.93;;;2.85;;
37855;SDS011;23694;43.274;26.924;2023-05-16T10:09:57;7.25;;;2.70;;
37855;SDS011;23694;43.274;26.924;2023-05-16T10:12:30;5.80;;;2.42;;
37855;SDS011;23694;43.274;26.924;2023-05-16T10:14:59;5.63;;;2.57;;
37855;SDS011;23694;43.274;26.924;2023-05-16T10:17:26;4.87;;;2.37;;
37855;SDS011;23694;43.274;26.924;2023-05-16T10:19:57;8.37;;;2.87;;
37855;SDS011;23694;43.274;26.924;2023-05-16T10:22:26;4.88;;;2.78;;
37855;SDS011;23694;43.274;26.924;2023-05-16T10:24:57;8.63;;;3.35;;
37855;SDS011;23694;43.274;26.924;2023-05-16T10:27:32;8.13;;;2.50;;
37855;SDS011;23694;43.274;26.924;2023-05-16T10:29:58;6.15;;;2.70;;
37855;SDS011;23694;43.274;26.924;2023-05-16T10:32:26;5.07;;;3.03;;
37855;SDS011;23694;43.274;26.924;2023-05-16T10:34:53;5.55;;;2.85;;
37855;SDS011;23694;43.274;26.924;2023-05-16T10:37:21;6.38;;;2.83;;
37855;SDS011;23694;43.274;26.924;2023-05-16T10:39:48;8.18;;;2.95;;
37855;SDS011;23694;43.274;26.924;2023-05-16T10:42:15;7.78;;;2.55;;
37855;SDS011;23694;43.274;26.924;2023-05-16T10:44:42;6.63;;;2.78;;
37855;SDS011;23694;43.274;26.924;2023-05-16T10:47:08;5.32;;;2.40;;
37855;SDS011;23694;43.274;26.924;2023-05-16T10:49:34;6.70;;;2.85;;
37855;SDS011;23694;43.274;26.924;2023-05-16T10:52:11;8.43;;;2.67;;
37855;SDS011;23694;43.274;26.924;2023-05-16T10:57:06;8.73;;;3.17;;
37855;SDS011;23694;43.274;26.924;2023-05-16T10:59:41;6.65;;;3.13;;
37855;SDS011;23694;43.274;26.924;2023-05-16T11:05:07;6.57;;;2.80;;
37855;SDS011;23694;43.274;26.924;2023-05-16T11:07:43;7.90;;;2.72;;
37855;SDS011;23694;43.274;26.924;2023-05-16T11:10:10;6.55;;;2.60;;
37855;SDS011;23694;43.274;26.924;2023-05-16T11:12:44;5.57;;;2.75;;
37855;SDS011;23694;43.274;26.924;2023-05-16T11:15:23;5.95;;;2.70;;
37855;SDS011;23694;43.274;26.924;2023-05-16T11:18:13;8.60;;;3.30;;
37855;SDS011;23694;43.274;26.924;2023-05-16T11:20:40;6.05;;;2.50;;
37855;SDS011;23694;43.274;26.924;2023-05-16T11:23:20;7.82;;;2.63;;
37855;SDS011;23694;43.274;26.924;2023-05-16T11:28:16;4.00;;;2.05;;
37855;SDS011;23694;43.274;26.924;2023-05-16T11:30:45;6.95;;;2.72;;
37855;SDS011;23694;43.274;26.924;2023-05-16T11:33:16;4.63;;;2.65;;
37855;SDS011;23694;43.274;26.924;2023-05-16T11:35:42;11.40;;;2.70;;
37855;SDS011;23694;43.274;26.924;2023-05-16T11:38:12;5.35;;;2.75;;
37855;SDS011;23694;43.274;26.924;2023-05-16T11:40:41;5.60;;;2.60;;
37855;SDS011;23694;43.274;26.924;2023-05-16T11:43:09;8.73;;;2.72;;
37855;SDS011;23694;43.274;26.924;2023-05-16T11:45:36;7.28;;;2.80;;
37855;SDS011;23694;43.274;26.924;2023-05-16T11:48:02;5.07;;;2.50;;
37855;SDS011;23694;43.274;26.924;2023-05-16T11:50:29;6.28;;;2.85;;
37855;SDS011;23694;43.274;26.924;2023-05-16T11:52:55;8.13;;;3.00;;
37855;SDS011;23694;43.274;26.924;2023-05-16T11:55:23;7.80;;;3.30;;
37855;SDS011;23694;43.274;26.924;2023-05-16T11:57:51;6.25;;;2.85;;
37855;SDS011;23694;43.274;26.924;2023-05-16T12:00:17;5.47;;;2.70;;
37855;SDS011;23694;43.274;26.924;2023-05-16T12:02:46;5.20;;;3.15;;
37855;SDS011;23694;43.274;26.924;2023-05-16T12:05:12;8.93;;;2.92;;
37855;SDS011;23694;43.274;26.924;2023-05-16T12:07:41;7.80;;;3.17;;
37855;SDS011;23694;43.274;26.924;2023-05-16T12:10:10;6.72;;;3.00;;
37855;SDS011;23694;43.274;26.924;2023-05-16T12:12:37;8.77;;;2.85;;
37855;SDS011;23694;43.274;26.924;2023-05-16T12:15:05;4.82;;;2.88;;
37855;SDS011;23694;43.274;26.924;2023-05-16T12:17:35;5.85;;;2.63;;
37855;SDS011;23694;43.274;26.924;2023-05-16T12:20:02;8.50;;;2.70;;
37855;SDS011;23694;43.274;26.924;2023-05-16T12:22:38;11.70;;;3.55;;
37855;SDS011;23694;43.274;26.924;2023-05-16T12:25:24;6.65;;;2.47;;
37855;SDS011;23694;43.274;26.924;2023-05-16T12:27:57;7.03;;;2.60;;
37855;SDS011;23694;43.274;26.924;2023-05-16T12:30:24;9.55;;;3.08;;
37855;SDS011;23694;43.274;26.924;2023-05-16T12:32:56;9.75;;;2.55;;
37855;SDS011;23694;43.274;26.924;2023-05-16T12:35:23;11.70;;;3.47;;
37855;SDS011;23694;43.274;26.924;2023-05-16T12:37:50;9.23;;;2.53;;
37855;SDS011;23694;43.274;26.924;2023-05-16T12:40:17;6.18;;;2.28;;
37855;SDS011;23694;43.274;26.924;2023-05-16T12:42:48;7.15;;;2.80;;
37855;SDS011;23694;43.274;26.924;2023-05-16T12:45:16;6.78;;;2.30;;
37855;SDS011;23694;43.274;26.924;2023-05-16T12:47:42;9.52;;;2.72;;
37855;SDS011;23694;43.274;26.924;2023-05-16T12:50:10;6.97;;;2.65;;
37855;SDS011;23694;43.274;26.924;2023-05-16T12:52:48;5.80;;;2.38;;
37855;SDS011;23694;43.274;26.924;2023-05-16T12:55:16;7.80;;;2.42;;
37855;SDS011;23694;43.274;26.924;2023-05-16T12:57:43;5.97;;;2.30;;
37855;SDS011;23694;43.274;26.924;2023-05-16T13:00:10;8.10;;;2.58;;
37855;SDS011;23694;43.274;26.924;2023-05-16T13:02:37;7.75;;;2.33;;
37855;SDS011;23694;43.274;26.924;2023-05-16T13:05:03;4.70;;;1.90;;
37855;SDS011;23694;43.274;26.924;2023-05-16T13:07:32;11.30;;;2.60;;
37855;SDS011;23694;43.274;26.924;2023-05-16T13:09:58;8.20;;;2.10;;
37855;SDS011;23694;43.274;26.924;2023-05-16T13:12:25;11.90;;;3.05;;
37855;SDS011;23694;43.274;26.924;2023-05-16T13:14:52;9.38;;;2.55;;
37855;SDS011;23694;43.274;26.924;2023-05-16T13:17:18;6.20;;;2.30;;
37855;SDS011;23694;43.274;26.924;2023-05-16T13:19:44;9.95;;;2.53;;
37855;SDS011;23694;43.274;26.924;2023-05-16T13:22:10;7.47;;;2.55;;
37855;SDS011;23694;43.274;26.924;2023-05-16T13:24:36;6.78;;;2.50;;
37855;SDS011;23694;43.274;26.924;2023-05-16T13:27:03;9.98;;;2.58;;
37855;SDS011;23694;43.274;26.924;2023-05-16T13:29:29;7.05;;;2.28;;
37855;SDS011;23694;43.274;26.924;2023-05-16T13:31:55;7.65;;;2.30;;
37855;SDS011;23694;43.274;26.924;2023-05-16T13:34:21;9.57;;;2.60;;
37855;SDS011;23694;43.274;26.924;2023-05-16T13:36:47;6.28;;;2.50;;
37855;SDS011;23694;43.274;26.924;2023-05-16T13:39:13;6.95;;;2.25;;
37855;SDS011;23694;43.274;26.924;2023-05-16T13:41:40;12.27;;;2.42;;
37855;SDS011;23694;43.274;26.924;2023-05-16T13:44:07;8.77;;;2.40;;
37855;SDS011;23694;43.274;26.924;2023-05-16T13:46:33;10.40;;;2.08;;
37855;SDS011;23694;43.274;26.924;2023-05-16T13:48:59;5.20;;;2.53;;
37855;SDS011;23694;43.274;26.924;2023-05-16T13:51:25;8.93;;;2.63;;
37855;SDS011;23694;43.274;26.924;2023-05-16T13:53:51;7.53;;;2.20;;
37855;SDS011;23694;43.274;26.924;2023-05-16T13:56:17;12.00;;;2.78;;
37855;SDS011;23694;43.274;26.924;2023-05-16T13:58:43;8.40;;;2.75;;
37855;SDS011;23694;43.274;26.924;2023-05-16T14:01:09;8.68;;;2.55;;
37855;SDS011;23694;43.274;26.924;2023-05-16T14:03:35;7.13;;;2.03;;
37855;SDS011;23694;43.274;26.924;2023-05-16T14:06:01;8.25;;;2.60;;
37855;SDS011;23694;43.274;26.924;2023-05-16T14:08:29;6.57;;;2.30;;
37855;SDS011;23694;43.274;26.924;2023-05-16T14:10:55;4.85;;;2.53;;
37855;SDS011;23694;43.274;26.924;2023-05-16T14:13:21;6.50;;;2.55;;
37855;SDS011;23694;43.274;26.924;2023-05-16T14:15:47;8.90;;;2.55;;
37855;SDS011;23694;43.274;26.924;2023-05-16T14:18:13;14.05;;;3.15;;
37855;SDS011;23694;43.274;26.924;2023-05-16T14:20:39;12.82;;;3.00;;
37855;SDS011;23694;43.274;26.924;2023-05-16T14:23:05;11.50;;;2.75;;
37855;SDS011;23694;43.274;26.924;2023-05-16T14:25:31;8.05;;;2.20;;
37855;SDS011;23694;43.274;26.924;2023-05-16T14:27:57;8.73;;;2.65;;
37855;SDS011;23694;43.274;26.924;2023-05-16T14:30:23;9.95;;;2.70;;
37855;SDS011;23694;43.274;26.924;2023-05-16T14:32:50;9.30;;;2.67;;
37855;SDS011;23694;43.274;26.924;2023-05-16T14:35:17;5.93;;;2.35;;
37855;SDS011;23694;43.274;26.924;2023-05-16T14:37:43;9.45;;;2.97;;
37855;SDS011;23694;43.274;26.924;2023-05-16T14:40:09;11.18;;;2.58;;
37855;SDS011;23694;43.274;26.924;2023-05-16T14:42:35;10.70;;;2.92;;